Time;durP1;ratioP1;P1;durP2;ratioP2;P2;SDS_P1;SDS_P2;PMS_P1;PMS_P2;Temp;Humidity;BMP_temperature;BMP_pressure;BME280_temperature;BME280_humidity;BME280_pressure;Samples;Min_cycle;Max_cycle;Signal;HPM_P1;HPM_P2
2023/07/25 00:18:51;;;;;;;;;;;;;;;;;;;;;
2023/07/25 00:21:26;;;;;;;0.80;0.80;;;13.50;99.90;;;;;;6000774;23;20025;-94
2023/07/25 00:24:00;;;;;;;0.90;0.90;;;13.30;99.90;;;;;;6017423;23;20550;-94
2023/07/25 00:26:26;;;;;;;0.80;0.80;;;13.30;99.90;;;;;;6017558;23;20024;-93
2023/07/25 00:28:58;;;;;;;0.80;0.80;;;13.20;99.90;;;;;;6017626;23;20050;-93
2023/07/25 00:31:50;;;;;;;0.80;0.80;;;13.10;99.90;;;;;;6017604;23;20105;-94
2023/07/25 00:34:18;;;;;;;0.90;0.90;;;13.00;99.90;;;;;;6014449;23;20026;-94
2023/07/25 00:36:44;;;;;;;0.90;0.90;;;12.80;99.90;;;;;;6017635;23;20449;-92
2023/07/25 00:39:11;;;;;;;0.90;0.90;;;12.80;99.90;;;;;;6017903;23;20050;-93
2023/07/25 00:42:23;;;;;;;;;;;;;;;;;;;;;
2023/07/25 00:48:56;;;;;;;0.80;0.80;;;12.80;99.90;;;;;;6007083;23;20056;-92
2023/07/25 00:51:25;;;;;;;0.82;0.82;;;12.90;99.90;;;;;;5959907;23;20460;-94
2023/07/25 00:53:54;;;;;;;0.80;0.80;;;13.00;99.90;;;;;;6003898;23;20482;-93
2023/07/25 00:56:20;;;;;;;0.80;0.80;;;13.10;99.90;;;;;;6041030;23;20030;-92
2023/07/25 00:58:49;;;;;;;0.88;0.88;;;13.20;99.90;;;;;;6040969;23;20022;-94
2023/07/25 01:01:44;;;;;;;0.90;0.90;;;13.10;99.90;;;;;;6041239;23;20101;-95
2023/07/25 01:05:25;;;;;;;0.82;0.82;;;13.20;99.90;;;;;;6043833;23;20019;-95
2023/07/25 01:08:51;;;;;;;;;;;;;;;;;;;;;
2023/07/25 01:12:09;;;;;;;0.90;0.90;;;13.20;99.90;;;;;;6007793;23;20022;-95
2023/07/25 01:15:29;;;;;;;0.90;0.90;;;13.20;99.90;;;;;;5958388;23;20467;-96
2023/07/25 01:21:39;;;;;;;0.80;0.80;;;13.20;99.90;;;;;;5910537;24;20485;-94
2023/07/25 01:24:33;;;;;;;0.80;0.80;;;13.30;99.90;;;;;;5931133;24;20024;-96
2023/07/25 01:27:02;;;;;;;0.80;0.80;;;13.30;99.90;;;;;;5931359;24;20059;-94
2023/07/25 01:29:28;;;;;;;0.82;0.82;;;13.10;99.90;;;;;;5954354;24;20052;-92
2023/07/25 01:31:58;;;;;;;0.80;0.80;;;13.10;99.90;;;;;;5990248;23;20102;-93
2023/07/25 01:34:26;;;;;;;0.80;0.80;;;13.00;99.90;;;;;;6035533;23;20023;-94
2023/07/25 01:36:58;;;;;;;0.80;0.80;;;13.10;99.90;;;;;;6037149;23;20015;-93
2023/07/25 01:39:29;;;;;;;0.90;0.90;;;12.90;99.90;;;;;;6012268;23;20026;-93
2023/07/25 01:41:54;;;;;;;0.80;0.80;;;12.70;99.90;;;;;;6012904;23;20023;-93
2023/07/25 01:44:23;;;;;;;0.90;0.90;;;12.70;99.90;;;;;;6011566;23;20486;-94
2023/07/25 01:46:51;;;;;;;0.90;0.90;;;12.80;99.90;;;;;;6037093;23;20019;-93
2023/07/25 01:49:38;;;;;;;0.90;0.90;;;12.80;99.90;;;;;;6012513;23;20506;-94
2023/07/25 01:52:04;;;;;;;0.90;0.90;;;12.80;99.90;;;;;;6036160;23;20331;-94
2023/07/25 01:54:30;;;;;;;0.90;0.90;;;12.70;99.90;;;;;;6035560;23;20019;-93
2023/07/25 01:56:55;;;;;;;0.90;0.90;;;12.50;99.90;;;;;;6011902;23;20050;-93
2023/07/25 01:59:21;;;;;;;0.90;0.90;;;12.50;99.90;;;;;;6011864;23;20327;-91
2023/07/25 02:01:47;;;;;;;0.90;0.90;;;12.70;99.90;;;;;;6011812;23;20019;-91
2023/07/25 02:04:13;;;;;;;0.90;0.90;;;12.60;99.90;;;;;;6035059;23;20023;-93
2023/07/25 02:06:38;;;;;;;0.90;0.90;;;12.70;99.90;;;;;;6011616;23;20026;-92
2023/07/25 02:09:04;;;;;;;0.90;0.90;;;12.70;99.90;;;;;;6035637;23;20038;-93
2023/07/25 02:11:30;;;;;;;0.90;0.90;;;12.70;99.90;;;;;;6034777;23;20941;-93
2023/07/25 02:13:56;;;;;;;0.90;0.90;;;12.70;99.90;;;;;;6034850;23;20422;-92
2023/07/25 02:16:21;;;;;;;0.80;0.80;;;12.70;99.90;;;;;;6011769;23;20064;-91
2023/07/25 02:18:50;;;;;;;0.90;0.90;;;12.80;99.90;;;;;;6035867;23;20447;-93
2023/07/25 02:21:16;;;;;;;0.90;0.90;;;12.80;99.90;;;;;;6012171;23;20015;-93
2023/07/25 02:23:42;;;;;;;0.90;0.90;;;12.80;99.90;;;;;;6016532;23;20026;-92
2023/07/25 02:26:07;;;;;;;0.90;0.90;;;12.80;99.90;;;;;;6039945;23;20027;-93
2023/07/25 02:28:33;;;;;;;0.90;0.90;;;12.60;99.90;;;;;;6016932;23;20046;-91
2023/07/25 02:30:59;;;;;;;0.90;0.90;;;12.60;99.90;;;;;;6016882;23;20023;-94
2023/07/25 02:33:25;;;;;;;0.90;0.90;;;12.60;99.90;;;;;;6016277;23;20019;-90
2023/07/25 02:35:50;;;;;;;0.90;0.90;;;12.60;99.90;;;;;;6015025;23;20097;-91
2023/07/25 02:38:16;;;;;;;0.90;0.90;;;12.60;99.90;;;;;;6015935;23;20023;-88
2023/07/25 02:40:43;;;;;;;0.90;0.90;;;12.70;99.90;;;;;;6040824;23;20074;-90
2023/07/25 02:43:09;;;;;;;0.90;0.90;;;12.60;99.90;;;;;;6017806;23;20026;-91
2023/07/25 02:45:35;;;;;;;0.90;0.90;;;12.60;99.90;;;;;;6041637;23;20022;-92
2023/07/25 02:48:01;;;;;;;0.90;0.90;;;12.60;99.90;;;;;;6018521;23;20019;-92
2023/07/25 02:50:27;;;;;;;0.90;0.90;;;12.60;99.90;;;;;;6018187;23;20041;-94
2023/07/25 02:52:56;;;;;;;0.90;0.90;;;12.60;99.90;;;;;;6019092;23;20030;-93
2023/07/25 02:55:22;;;;;;;0.90;0.90;;;12.70;99.90;;;;;;6018182;23;20023;-93
2023/07/25 02:57:48;;;;;;;0.90;0.90;;;12.80;99.90;;;;;;6042081;23;20019;-91
2023/07/25 03:00:14;;;;;;;0.80;0.80;;;12.70;99.90;;;;;;6018418;23;20055;-91
2023/07/25 03:03:14;;;;;;;0.90;0.90;;;12.70;99.90;;;;;;6020234;23;20037;-96
2023/07/25 03:05:51;;;;;;;0.90;0.90;;;12.60;99.90;;;;;;6000724;23;20106;-96
2023/07/25 03:08:20;;;;;;;0.90;0.90;;;12.60;99.90;;;;;;6018895;23;20026;-94
2023/07/25 03:10:48;;;;;;;0.93;0.93;;;12.60;99.90;;;;;;6017620;23;20015;-96
2023/07/25 03:13:22;;;;;;;0.90;0.90;;;12.60;99.90;;;;;;6017425;23;20026;-96
2023/07/25 03:16:04;;;;;;;;;;;;;;;;;;;;;
2023/07/25 03:19:15;;;;;;;0.90;0.90;;;12.50;99.90;;;;;;6042854;23;20089;-96
2023/07/25 03:21:44;;;;;;;1.00;1.00;;;12.30;99.90;;;;;;5955935;23;20098;-94
2023/07/25 03:24:10;;;;;;;0.98;0.98;;;12.10;99.90;;;;;;6017916;23;20019;-95
2023/07/25 03:27:23;;;;;;;0.90;0.90;;;12.00;99.90;;;;;;6020227;23;20522;-96
2023/07/25 03:34:02;;;;;;;0.85;0.85;;;11.80;99.90;;;;;;5953493;24;20521;-96
2023/07/25 03:36:37;;;;;;;0.80;0.80;;;11.90;99.90;;;;;;5908788;24;20024;-96
2023/07/25 03:42:59;;;;;;;0.90;0.90;;;12.00;99.90;;;;;;5927703;24;20032;-96
2023/07/25 03:45:46;;;;;;;0.80;0.80;;;12.10;99.90;;;;;;5901905;24;20082;-96
2023/07/25 03:53:29;;;;;;;;;;;;;;;;;;;;;
2023/07/25 03:57:07;;;;;;;0.80;0.80;;;12.10;99.90;;;;;;5764842;24;20012;-96
2023/07/25 04:00:20;;;;;;;0.73;0.73;;;12.10;99.90;;;;;;5790585;24;20023;-96
2023/07/25 04:03:49;;;;;;;;;;;;;;;;;;;;;
2023/07/25 04:06:50;;;;;;;;;;;;;;;;;;;;;
2023/07/25 04:28:03;;;;;;;0.80;0.80;;;12.30;99.90;;;;;;5949880;23;20020;-95
2023/07/25 04:41:50;;;;;;;;;;;;;;;;;;;;;
2023/07/25 04:44:16;;;;;;;0.70;0.70;;;12.90;99.90;;;;;;6033569;23;20063;-92
2023/07/25 04:46:42;;;;;;;0.80;0.80;;;13.00;99.90;;;;;;6009517;23;20131;-91
2023/07/25 04:49:11;;;;;;;0.70;0.70;;;13.20;99.90;;;;;;5986183;23;20027;-93
2023/07/25 04:51:40;;;;;;;0.80;0.80;;;13.20;99.90;;;;;;6017069;23;20019;-92
2023/07/25 04:54:07;;;;;;;0.73;0.73;;;13.10;99.90;;;;;;6016813;23;20077;-92
2023/07/25 04:56:38;;;;;;;0.80;0.80;;;13.30;99.90;;;;;;6041172;23;20443;-92
2023/07/25 04:59:07;;;;;;;;;;;13.30;99.90;;;;;;6016845;23;20110;-94
2023/07/25 05:01:35;;;;;;;0.95;0.95;;;13.40;99.90;;;;;;6039453;23;19917;-92
2023/07/25 05:04:01;;;;;;;0.80;0.80;;;13.30;99.90;;;;;;6016056;23;20038;-92
2023/07/25 05:06:27;;;;;;;0.88;0.88;;;13.40;99.90;;;;;;6014214;23;20019;-93
2023/07/25 05:08:53;;;;;;;0.90;0.90;;;13.40;99.90;;;;;;6015734;23;20014;-93
2023/07/25 05:11:18;;;;;;;0.85;0.85;;;13.40;99.90;;;;;;6015498;23;20025;-90
2023/07/25 05:13:44;;;;;;;0.90;0.90;;;13.60;99.90;;;;;;6016702;23;20510;-91
2023/07/25 05:16:10;;;;;;;0.90;0.90;;;13.70;99.90;;;;;;6016859;23;20026;-91
2023/07/25 05:18:47;;;;;;;0.80;0.80;;;13.70;99.90;;;;;;6041390;23;20105;-94
2023/07/25 05:21:48;;;;;;;0.90;0.90;;;13.80;99.90;;;;;;6043440;23;20097;-94
2023/07/25 05:24:24;;;;;;;;;;;;;;;;;;;;;
2023/07/25 05:27:46;;;;;;;0.80;0.80;;;14.00;99.90;;;;;;6042215;23;20094;-95
2023/07/25 05:30:24;;;;;;;0.80;0.80;;;13.90;99.90;;;;;;6018039;23;20027;-94
2023/07/25 05:33:27;;;;;;;0.90;0.90;;;14.10;99.90;;;;;;6017730;23;20026;-92
2023/07/25 05:43:26;;;;;;;1.05;1.05;;;14.40;99.90;;;;;;6008957;23;20062;-95
2023/07/25 05:53:39;;;;;;;1.02;1.02;;;14.50;99.90;;;;;;5925621;23;20099;-93
2023/07/25 05:56:05;;;;;;;1.10;1.10;;;14.50;99.90;;;;;;5878180;24;20021;-92
2023/07/25 06:13:24;;;;;;;0.90;0.90;;;15.00;99.90;;;;;;5930477;24;20020;-96
2023/07/25 06:15:53;;;;;;;1.15;1.15;;;15.20;99.90;;;;;;5879516;24;20029;-92
2023/07/25 06:18:33;;;;;;;0.98;0.98;;;15.50;99.90;;;;;;5889040;23;20021;-94
2023/07/25 06:20:59;;;;;;;1.05;1.05;;;15.90;99.90;;;;;;6019669;23;20021;-91
2023/07/25 06:23:25;;;;;;;1.02;1.02;;;16.40;99.90;;;;;;6065640;23;20018;-89
2023/07/25 06:29:26;;;;;;;1.13;1.13;;;16.50;99.90;;;;;;6039484;23;20359;-94
2023/07/25 06:32:27;;;;;;;1.20;1.20;;;16.90;99.90;;;;;;6020941;23;20960;-95
2023/07/25 06:34:56;;;;;;;1.05;1.05;;;17.00;99.90;;;;;;6020032;23;20019;-96
2023/07/25 06:37:22;;;;;;;1.20;1.20;;;16.80;99.90;;;;;;6019809;23;20019;-92
2023/07/25 06:39:53;;;;;;;1.00;1.00;;;17.00;99.90;;;;;;6018051;23;20049;-93
2023/07/25 06:42:37;;;;;;;0.90;0.90;;;17.00;99.90;;;;;;6041911;23;20019;-93
2023/07/25 06:45:08;;;;;;;1.30;1.30;;;17.70;99.90;;;;;;6019345;23;20019;-93
2023/07/25 06:47:39;;;;;;;1.30;1.30;;;17.90;99.90;;;;;;6017675;23;20023;-91
2023/07/25 06:50:32;;;;;;;1.58;1.48;;;18.20;99.90;;;;;;6018925;23;20110;-95
2023/07/25 06:53:32;;;;;;;1.40;1.38;;;18.50;99.90;;;;;;6018600;23;20026;-94
2023/07/25 06:56:28;;;;;;;1.30;1.30;;;18.80;99.90;;;;;;6009648;23;20018;-95
2023/07/25 06:59:36;;;;;;;;;;;;;;;;;;;;;
2023/07/25 07:02:08;;;;;;;1.33;1.33;;;19.20;99.90;;;;;;6042203;23;20029;-94
2023/07/25 07:04:34;;;;;;;1.65;1.55;;;19.20;99.90;;;;;;6015615;23;20027;-89
2023/07/25 07:07:28;;;;;;;;;;;;;;;;;;;;;
2023/07/25 07:10:06;;;;;;;1.90;1.80;;;19.40;99.90;;;;;;6039884;23;20014;-90
2023/07/25 07:12:42;;;;;;;1.90;1.80;;;19.40;99.90;;;;;;6017450;23;20023;-93
2023/07/25 07:15:26;;;;;;;1.70;1.60;;;19.30;99.90;;;;;;6019082;23;20106;-93
2023/07/25 07:17:57;;;;;;;1.67;1.58;;;19.40;99.90;;;;;;6040186;23;20034;-92
2023/07/25 07:20:23;;;;;;;1.80;1.70;;;19.60;99.90;;;;;;6017334;23;20046;-93
2023/07/25 07:23:01;;;;;;;1.50;1.40;;;19.40;99.90;;;;;;6041657;23;20019;-93
2023/07/25 07:26:18;;;;;;;1.98;1.88;;;19.20;99.90;;;;;;6017851;23;20023;-94
2023/07/25 07:28:45;;;;;;;1.65;1.55;;;18.90;99.90;;;;;;5955801;24;20052;-91
2023/07/25 07:32:06;;;;;;;1.60;1.50;;;19.00;99.90;;;;;;5932205;24;20016;-96
2023/07/25 07:34:51;;;;;;;1.63;1.52;;;19.10;99.90;;;;;;5924639;24;20063;-92
2023/07/25 07:37:39;;;;;;;1.73;1.63;;;19.00;99.90;;;;;;5927523;24;20448;-94
2023/07/25 07:40:08;;;;;;;1.50;1.40;;;19.10;99.90;;;;;;6035597;23;20022;-96
2023/07/25 07:42:34;;;;;;;1.50;1.40;;;19.40;99.90;;;;;;6044438;23;20676;-91
2023/07/25 07:45:41;;;;;;;1.60;1.50;;;19.40;99.90;;;;;;6017716;23;20034;-93
2023/07/25 07:48:32;;;;;;;1.50;1.40;;;19.30;99.90;;;;;;6040098;23;20015;-95
2023/07/25 07:51:02;;;;;;;1.60;1.50;;;19.20;99.90;;;;;;6016976;23;20438;-89
2023/07/25 07:53:28;;;;;;;1.60;1.50;;;19.30;99.90;;;;;;6042107;23;20442;-92
2023/07/25 07:55:54;;;;;;;1.63;1.52;;;19.60;99.90;;;;;;6017146;23;20054;-93
2023/07/25 07:58:19;;;;;;;1.30;1.30;;;19.60;99.90;;;;;;6041076;23;20050;-94
2023/07/25 08:00:48;;;;;;;1.30;1.30;;;19.80;99.90;;;;;;6040451;23;20436;-93
2023/07/25 08:03:14;;;;;;;1.20;1.20;;;20.00;99.90;;;;;;6016177;23;20466;-93
2023/07/25 08:06:30;;;;;;;;;;;;;;;;;;;;;
2023/07/25 08:09:22;;;;;;;1.20;1.20;;;20.00;99.90;;;;;;6042141;23;20620;-93
2023/07/25 08:11:48;;;;;;;1.30;1.30;;;20.30;99.90;;;;;;6040930;23;20019;-92
2023/07/25 08:14:39;;;;;;;1.25;1.25;;;20.10;99.90;;;;;;6040617;23;20019;-94
2023/07/25 08:17:07;;;;;;;1.08;1.08;;;19.80;99.90;;;;;;6040324;23;20026;-94
2023/07/25 08:19:44;;;;;;;1.05;1.05;;;20.20;99.90;;;;;;6016216;23;20027;-91
2023/07/25 08:22:13;;;;;;;1.02;1.02;;;20.20;99.90;;;;;;6015194;23;20328;-92
2023/07/25 08:24:41;;;;;;;0.95;0.95;;;20.50;99.90;;;;;;6016015;23;20022;-91
2023/07/25 08:27:35;;;;;;;1.05;1.05;;;20.30;99.90;;;;;;6016624;23;20435;-94
2023/07/25 08:30:01;;;;;;;1.10;1.10;;;20.30;99.90;;;;;;6016438;23;20446;-88
2023/07/25 08:32:29;;;;;;;1.00;1.00;;;20.20;99.90;;;;;;6014612;23;20102;-95
2023/07/25 08:35:01;;;;;;;1.00;1.00;;;20.10;99.90;;;;;;6038280;23;20030;-95
2023/07/25 08:37:27;;;;;;;1.00;1.00;;;20.60;99.90;;;;;;6015652;23;20022;-90
2023/07/25 08:39:52;;;;;;;0.90;0.90;;;20.70;99.90;;;;;;6039066;23;20030;-89
2023/07/25 08:42:39;;;;;;;0.90;0.90;;;21.00;99.90;;;;;;6017327;23;20019;-95
2023/07/25 08:45:12;;;;;;;0.90;0.90;;;20.90;99.90;;;;;;6040412;23;20019;-95
2023/07/25 08:47:45;;;;;;;0.80;0.80;;;20.70;99.90;;;;;;6041454;23;20033;-90
2023/07/25 08:50:19;;;;;;;0.98;0.98;;;20.40;99.90;;;;;;6038617;23;20022;-88
2023/07/25 08:52:55;;;;;;;0.68;0.68;;;20.50;99.90;;;;;;6039292;23;20023;-91
2023/07/25 08:55:21;;;;;;;0.70;0.70;;;21.10;99.90;;;;;;6037488;23;20684;-89
2023/07/25 08:57:51;;;;;;;0.90;0.90;;;21.40;99.90;;;;;;6035035;23;20023;-88
2023/07/25 09:00:16;;;;;;;0.88;0.88;;;21.70;99.90;;;;;;6014663;23;20033;-89
2023/07/25 09:02:42;;;;;;;0.93;0.93;;;21.80;99.90;;;;;;6014579;23;20018;-91
2023/07/25 09:05:09;;;;;;;0.93;0.93;;;21.60;99.90;;;;;;6012993;23;20460;-89
2023/07/25 09:08:06;;;;;;;0.85;0.85;;;21.30;99.90;;;;;;6039189;23;20062;-94
2023/07/25 09:10:32;;;;;;;1.00;1.00;;;20.90;99.90;;;;;;6014589;23;20030;-89
2023/07/25 09:13:31;;;;;;;1.00;1.00;;;20.60;99.90;;;;;;6013209;23;20018;-94
2023/07/25 09:15:59;;;;;;;0.90;0.90;;;20.30;99.90;;;;;;6038767;23;20030;-90
2023/07/25 09:18:37;;;;;;;0.90;0.90;;;20.20;99.90;;;;;;6038228;23;20027;-93
2023/07/25 09:21:16;;;;;;;0.80;0.80;;;20.10;99.90;;;;;;6013877;23;20019;-92
2023/07/25 09:23:52;;;;;;;0.85;0.85;;;20.50;99.90;;;;;;6037537;23;20092;-92
2023/07/25 09:29:37;;;;;;;0.82;0.82;;;21.40;99.90;;;;;;6062078;23;20022;-90
2023/07/25 09:32:23;;;;;;;0.80;0.80;;;21.10;99.90;;;;;;6012976;23;20026;-89
2023/07/25 09:35:21;;;;;;;1.00;1.00;;;20.80;99.90;;;;;;6011694;23;20047;-91
2023/07/25 09:38:06;;;;;;;;;;;;;;;;;;;;;
2023/07/25 09:40:51;;;;;;;0.80;0.80;;;21.30;99.90;;;;;;6035567;23;20339;-94
2023/07/25 09:43:31;;;;;;;0.75;0.75;;;22.00;99.90;;;;;;6037637;23;20064;-91
2023/07/25 09:46:01;;;;;;;0.77;0.77;;;21.50;99.90;;;;;;6015931;23;20435;-95
2023/07/25 09:48:30;;;;;;;0.77;0.77;;;22.10;99.90;;;;;;6013393;23;20469;-91
2023/07/25 09:50:57;;;;;;;1.00;1.00;;;21.80;99.90;;;;;;6013675;23;20086;-88
2023/07/25 09:53:29;;;;;;;0.82;0.82;;;20.70;99.90;;;;;;6061249;23;20023;-92
2023/07/25 09:55:59;;;;;;;0.60;0.60;;;20.90;99.90;;;;;;6014365;23;20033;-88
2023/07/25 09:58:26;;;;;;;0.63;0.63;;;21.10;99.90;;;;;;6014461;23;20057;-91
2023/07/25 10:04:32;;;;;;;0.82;0.82;;;21.60;99.90;;;;;;6036474;23;20031;-91
2023/07/25 10:06:59;;;;;;;0.82;0.82;;;21.20;99.90;;;;;;6039819;23;20098;-90
2023/07/25 10:09:31;;;;;;;0.63;0.63;;;21.20;99.90;;;;;;6015673;23;20054;-91
2023/07/25 10:12:33;;;;;;;;;;;;;;;;;;;;;
2023/07/25 10:15:04;;;;;;;0.60;0.60;;;21.00;99.90;;;;;;6038648;23;20022;-90
2023/07/25 10:17:30;;;;;;;0.60;0.60;;;20.70;99.90;;;;;;6018454;23;20023;-92
2023/07/25 10:19:59;;;;;;;0.60;0.60;;;20.40;99.90;;;;;;6016943;23;20069;-92
2023/07/25 10:22:41;;;;;;;0.60;0.60;;;20.40;99.90;;;;;;6016138;23;20015;-93
2023/07/25 10:25:39;;;;;;;0.50;0.50;;;20.00;99.90;;;;;;6039259;23;20025;-89
2023/07/25 10:28:24;;;;;;;0.50;0.50;;;21.20;99.90;;;;;;6013894;23;20023;-87
2023/07/25 10:30:52;;;;;;;0.50;0.50;;;21.10;99.90;;;;;;6013157;23;20019;-87
2023/07/25 10:33:18;;;;;;;0.57;0.57;;;20.90;99.90;;;;;;6015377;23;20030;-89
2023/07/25 10:35:52;;;;;;;0.40;0.40;;;21.30;99.90;;;;;;6009191;23;20023;-90
2023/07/25 10:39:01;;;;;;;0.50;0.50;;;21.40;99.90;;;;;;6016593;23;20014;-94
2023/07/25 10:41:50;;;;;;;0.50;0.50;;;21.60;99.90;;;;;;6013378;23;20069;-90
2023/07/25 10:44:37;;;;;;;0.50;0.50;;;21.30;99.90;;;;;;6036479;23;20113;-88
2023/07/25 10:47:49;;;;;;;0.60;0.60;;;21.80;99.90;;;;;;6012367;23;20029;-89
2023/07/25 10:51:03;;;;;;;0.60;0.60;;;21.20;99.90;;;;;;6023975;23;20127;-89
2023/07/25 10:57:22;;;;;;;0.50;0.50;;;20.60;99.90;;;;;;6037228;23;20078;-93
2023/07/25 11:00:10;;;;;;;0.47;0.47;;;20.10;99.90;;;;;;6013094;23;20022;-90
2023/07/25 11:03:20;;;;;;;0.47;0.47;;;20.90;99.90;;;;;;6036800;23;20027;-89
2023/07/25 11:06:37;;;;;;;0.50;0.50;;;21.50;99.90;;;;;;6001533;23;20027;-93
2023/07/25 11:09:15;;;;;;;0.50;0.50;;;22.20;99.90;;;;;;6030108;23;20030;-88
2023/07/25 11:14:40;;;;;;;0.50;0.50;;;22.80;99.90;;;;;;6019652;23;20022;-89
2023/07/25 11:17:05;;;;;;;0.50;0.50;;;22.80;99.90;;;;;;6032024;23;20026;-85
2023/07/25 11:19:31;;;;;;;0.60;0.60;;;22.80;99.90;;;;;;6009938;23;20050;-88
2023/07/25 11:21:57;;;;;;;0.60;0.60;;;23.00;99.90;;;;;;6032549;23;20054;-92
2023/07/25 11:24:23;;;;;;;0.60;0.60;;;22.60;99.90;;;;;;6011326;23;20027;-86
2023/07/25 11:26:54;;;;;;;0.70;0.70;;;22.00;99.90;;;;;;6009208;23;20023;-87
2023/07/25 11:29:22;;;;;;;0.68;0.68;;;21.30;99.90;;;;;;6009258;23;20021;-90
2023/07/25 11:32:04;;;;;;;0.60;0.60;;;22.10;99.90;;;;;;6009346;23;20057;-91
2023/07/25 11:34:32;;;;;;;0.50;0.50;;;22.50;99.90;;;;;;6009979;23;20023;-92
2023/07/25 11:36:58;;;;;;;0.68;0.68;;;22.90;99.90;;;;;;6033992;23;20447;-87
2023/07/25 11:39:27;;;;;;;0.30;0.30;;;23.40;99.90;;;;;;6009628;23;20022;-88
2023/07/25 11:41:52;;;;;;;0.60;0.60;;;23.80;99.90;;;;;;6008383;23;20023;-91
2023/07/25 11:44:23;;;;;;;0.60;0.60;;;23.80;99.90;;;;;;6032597;23;20206;-87
2023/07/25 11:47:04;;;;;;;;;;;;;;;;;;;;;
2023/07/25 11:49:33;;;;;;;;;;;23.20;99.90;;;;;;6033728;23;20454;-91
2023/07/25 11:52:03;;;;;;;0.60;0.60;;;22.30;99.90;;;;;;6032896;23;19921;-89
2023/07/25 11:56:15;;;;;;;0.70;0.70;;;21.90;99.90;;;;;;4953922;27;3799006;-92
2023/07/25 11:58:50;;;;;;;0.60;0.60;;;21.50;99.90;;;;;;5047686;28;20531;-95
2023/07/25 12:01:33;;;;;;;0.50;0.50;;;22.20;99.90;;;;;;5046474;28;20481;-93
2023/07/25 12:04:02;;;;;;;0.50;0.50;;;22.30;99.90;;;;;;5043114;28;20053;-87
2023/07/25 12:06:30;;;;;;;0.40;0.40;;;22.90;99.90;;;;;;5049388;28;20048;-88
2023/07/25 12:09:04;;;;;;;0.30;0.30;;;23.60;99.90;;;;;;5043432;28;20040;-88
2023/07/25 12:11:44;;;;;;;0.60;0.60;;;23.70;99.90;;;;;;5061220;28;20040;-88
2023/07/25 12:14:13;;;;;;;0.68;0.68;;;23.10;99.90;;;;;;5063399;28;20136;-93
2023/07/25 12:16:46;;;;;;;0.68;0.68;;;23.20;99.90;;;;;;5045221;28;20048;-90
2023/07/25 12:19:18;;;;;;;0.30;0.30;;;23.10;99.90;;;;;;5047956;28;20726;-89
2023/07/25 12:21:47;;;;;;;0.38;0.38;;;23.00;99.90;;;;;;5057330;28;20701;-88
2023/07/25 12:24:15;;;;;;;0.95;0.95;;;22.80;99.90;;;;;;5044602;28;20036;-92
2023/07/25 12:26:56;;;;;;;0.60;0.60;;;22.10;99.90;;;;;;5050902;28;20043;-93
2023/07/25 12:29:26;;;;;;;0.70;0.70;;;22.20;99.90;;;;;;5045345;28;20045;-86
2023/07/25 12:31:53;;;;;;;0.70;0.70;;;22.10;99.90;;;;;;5059618;28;20047;-88
2023/07/25 12:34:20;;;;;;;0.70;0.70;;;21.70;99.90;;;;;;5062637;28;20096;-89
2023/07/25 12:36:51;;;;;;;0.80;0.80;;;21.50;99.90;;;;;;5046814;28;20519;-93
2023/07/25 12:39:17;;;;;;;0.63;0.63;;;21.80;99.90;;;;;;5045867;28;20055;-91
2023/07/25 12:41:50;;;;;;;0.60;0.60;;;22.30;99.90;;;;;;5042954;28;20127;-95
2023/07/25 12:44:28;;;;;;;0.65;0.65;;;22.80;99.90;;;;;;5049140;28;20040;-90
2023/07/25 12:47:04;;;;;;;0.60;0.60;;;23.20;99.90;;;;;;5034853;28;20122;-93
2023/07/25 12:49:39;;;;;;;0.47;0.47;;;23.80;99.90;;;;;;5023979;28;21372;-93
2023/07/25 12:52:05;;;;;;;0.82;0.82;;;23.40;99.90;;;;;;5042961;28;20107;-93
2023/07/25 12:54:34;;;;;;;0.30;0.30;;;22.60;99.90;;;;;;5026782;28;20064;-92
2023/07/25 12:57:00;;;;;;;0.73;0.73;;;22.20;99.90;;;;;;5044384;28;20045;-93
2023/07/25 12:59:32;;;;;;;0.70;0.70;;;21.90;99.90;;;;;;5044932;28;20063;-87
2023/07/25 13:01:57;;;;;;;0.70;0.70;;;21.40;99.90;;;;;;5044421;28;20045;-90
2023/07/25 13:04:32;;;;;;;0.35;0.35;;;21.20;99.90;;;;;;5040342;28;20040;-92
2023/07/25 13:06:59;;;;;;;0.63;0.63;;;21.20;99.90;;;;;;5027916;28;20049;-90
2023/07/25 13:09:25;;;;;;;0.60;0.60;;;20.80;99.90;;;;;;5031386;28;20038;-90
2023/07/25 13:11:51;;;;;;;0.60;0.60;;;20.80;99.90;;;;;;5011434;28;20045;-91
2023/07/25 13:14:20;;;;;;;0.60;0.60;;;20.90;99.90;;;;;;5031276;28;20113;-92
2023/07/25 13:16:54;;;;;;;0.60;0.60;;;21.10;99.90;;;;;;5029659;28;20049;-96
2023/07/25 13:19:21;;;;;;;0.60;0.60;;;21.10;99.90;;;;;;5016065;28;20049;-86
2023/07/25 13:21:47;;;;;;;0.60;0.60;;;21.20;99.90;;;;;;5030497;28;20549;-88
2023/07/25 13:24:16;;;;;;;0.60;0.60;;;21.20;99.90;;;;;;5018391;28;20049;-93
2023/07/25 13:26:41;;;;;;;0.60;0.60;;;21.40;99.90;;;;;;5030500;28;20075;-89
2023/07/25 13:29:07;;;;;;;0.60;0.60;;;21.20;99.90;;;;;;5013281;28;20077;-93
2023/07/25 13:31:36;;;;;;;0.60;0.60;;;21.10;99.90;;;;;;5029259;28;20056;-91
2023/07/25 13:34:22;;;;;;;0.63;0.63;;;21.40;99.90;;;;;;5029663;28;20037;-93
2023/07/25 13:36:48;;;;;;;0.60;0.60;;;21.60;99.90;;;;;;5014576;28;20151;-90
2023/07/25 13:39:14;;;;;;;0.63;0.63;;;21.60;99.90;;;;;;5010930;28;20068;-89
2023/07/25 13:41:39;;;;;;;0.60;0.60;;;22.10;99.90;;;;;;5030699;28;20037;-87
2023/07/25 13:44:05;;;;;;;0.60;0.60;;;22.40;99.90;;;;;;5009236;28;20045;-86
2023/07/25 13:46:31;;;;;;;0.60;0.60;;;22.30;99.90;;;;;;5010677;28;20517;-92
2023/07/25 13:48:57;;;;;;;0.60;0.60;;;23.20;99.90;;;;;;5010896;28;20116;-89
2023/07/25 13:51:23;;;;;;;0.60;0.60;;;22.20;99.90;;;;;;5029299;28;20466;-90
2023/07/25 13:54:10;;;;;;;0.60;0.60;;;21.70;99.90;;;;;;5012685;28;20131;-89
2023/07/25 13:56:37;;;;;;;0.60;0.60;;;21.70;99.90;;;;;;5024439;28;20107;-87
2023/07/25 13:59:03;;;;;;;0.70;0.70;;;21.40;99.90;;;;;;5009923;28;20049;-88
2023/07/25 14:01:29;;;;;;;0.70;0.70;;;21.20;99.90;;;;;;5025439;28;20061;-91
2023/07/25 14:03:54;;;;;;;0.70;0.70;;;21.00;99.90;;;;;;5013021;28;20095;-88
2023/07/25 14:06:20;;;;;;;0.80;0.80;;;20.80;99.90;;;;;;5027474;28;20075;-90
2023/07/25 14:08:49;;;;;;;0.80;0.80;;;20.80;99.90;;;;;;5029423;28;20596;-90
2023/07/25 14:11:17;;;;;;;0.80;0.80;;;20.40;99.90;;;;;;5011437;28;20047;-90
2023/07/25 14:13:47;;;;;;;0.77;0.77;;;20.40;99.90;;;;;;5025046;28;20049;-94
2023/07/25 14:16:13;;;;;;;0.73;0.73;;;20.00;99.90;;;;;;5022099;28;20132;-89
2023/07/25 14:18:39;;;;;;;0.60;0.60;;;20.30;99.90;;;;;;5007320;28;20056;-90
2023/07/25 14:21:06;;;;;;;0.60;0.60;;;20.20;99.90;;;;;;5008496;28;20052;-90
2023/07/25 14:23:32;;;;;;;0.60;0.60;;;19.80;99.90;;;;;;5027843;28;20119;-89
2023/07/25 14:26:04;;;;;;;0.60;0.60;;;19.90;99.90;;;;;;5009372;28;20041;-95
2023/07/25 14:28:39;;;;;;;0.60;0.60;;;19.90;99.90;;;;;;5015488;28;20048;-95
2023/07/25 14:31:05;;;;;;;0.60;0.60;;;19.90;99.90;;;;;;5008878;28;20056;-90
2023/07/25 14:33:31;;;;;;;0.60;0.60;;;20.10;99.90;;;;;;5011351;28;20060;-87
2023/07/25 14:35:59;;;;;;;0.60;0.60;;;20.00;99.90;;;;;;5026640;28;20505;-92
2023/07/25 14:38:25;;;;;;;0.60;0.60;;;20.00;99.90;;;;;;5026284;28;20058;-92
2023/07/25 14:40:51;;;;;;;0.68;0.68;;;19.80;99.90;;;;;;5014313;28;20041;-93
2023/07/25 14:43:17;;;;;;;0.68;0.68;;;19.70;99.90;;;;;;5026834;28;20045;-90
2023/07/25 14:45:43;;;;;;;0.63;0.63;;;19.80;99.90;;;;;;5012134;28;20048;-88
2023/07/25 14:48:09;;;;;;;0.70;0.70;;;19.60;99.90;;;;;;5017186;28;20046;-90
2023/07/25 14:50:36;;;;;;;0.70;0.70;;;19.50;99.90;;;;;;5014159;28;20106;-89
2023/07/25 14:53:07;;;;;;;0.70;0.70;;;19.30;99.90;;;;;;5031916;28;20489;-92
2023/07/25 14:55:49;;;;;;;0.70;0.70;;;19.40;99.90;;;;;;5029003;28;20080;-94
2023/07/25 14:58:14;;;;;;;0.70;0.70;;;19.50;99.90;;;;;;5029856;28;20041;-89
2023/07/25 15:00:40;;;;;;;0.70;0.70;;;19.70;99.90;;;;;;5010125;28;20520;-91
2023/07/25 15:03:06;;;;;;;0.70;0.70;;;19.80;99.90;;;;;;5008188;28;20047;-89
2023/07/25 15:05:32;;;;;;;0.70;0.70;;;20.00;99.90;;;;;;5009120;28;20240;-88
2023/07/25 15:07:57;;;;;;;0.70;0.70;;;20.20;99.90;;;;;;5025354;28;20857;-92
2023/07/25 15:10:23;;;;;;;0.70;0.70;;;20.40;99.90;;;;;;5008336;28;20040;-88
2023/07/25 15:12:52;;;;;;;0.70;0.70;;;20.50;99.90;;;;;;5019069;28;20726;-88
2023/07/25 15:15:26;;;;;;;0.70;0.70;;;20.50;99.90;;;;;;5008286;28;20044;-95
2023/07/25 15:17:52;;;;;;;0.60;0.60;;;20.50;99.90;;;;;;5009833;28;20051;-92
2023/07/25 15:20:49;;;;;;;0.60;0.60;;;20.40;99.90;;;;;;5010155;28;20046;-93
2023/07/25 15:23:14;;;;;;;0.60;0.60;;;20.50;99.90;;;;;;5029257;28;20041;-90
2023/07/25 15:25:43;;;;;;;0.63;0.63;;;20.30;99.90;;;;;;5026046;28;20045;-92
2023/07/25 15:28:19;;;;;;;0.60;0.60;;;20.20;99.90;;;;;;5011566;28;20044;-91
2023/07/25 15:31:06;;;;;;;0.57;0.57;;;20.00;99.90;;;;;;5013092;28;21011;-94
2023/07/25 15:34:14;;;;;;;0.60;0.60;;;20.20;99.90;;;;;;5027841;28;20038;-96
2023/07/25 15:36:48;;;;;;;0.57;0.57;;;20.50;99.90;;;;;;4990917;28;20049;-91
2023/07/25 15:39:32;;;;;;;0.50;0.50;;;21.00;99.90;;;;;;5009170;28;20183;-92
2023/07/25 15:42:04;;;;;;;0.60;0.60;;;20.80;99.90;;;;;;5011719;28;20094;-92
2023/07/25 15:44:30;;;;;;;0.60;0.60;;;20.40;99.90;;;;;;5005638;28;20072;-90